createdAt,value
2023-07-25T00:04:55.158Z,18.82
2023-07-25T00:09:53.906Z,18.81
2023-07-25T00:14:52.609Z,19.11
2023-07-25T00:19:51.270Z,19.00
2023-07-25T00:24:50.563Z,18.98
2023-07-25T00:29:52.687Z,19.02
2023-07-25T00:34:51.915Z,18.86
2023-07-25T00:39:54.229Z,18.93
2023-07-25T00:44:53.480Z,18.77
2023-07-25T00:49:53.540Z,18.60
2023-07-25T00:54:52.502Z,18.62
2023-07-25T00:59:51.146Z,18.86
2023-07-25T01:04:49.830Z,18.60
2023-07-25T01:09:48.567Z,18.47
2023-07-25T01:14:47.395Z,18.61
2023-07-25T01:19:47.850Z,18.62
2023-07-25T01:24:48.790Z,18.68
2023-07-25T01:29:47.802Z,18.52
2023-07-25T01:34:46.880Z,18.58
2023-07-25T01:39:45.719Z,18.65
2023-07-25T01:44:44.551Z,18.52
2023-07-25T01:49:43.476Z,18.55
2023-07-25T01:54:42.461Z,18.46
2023-07-25T01:59:41.475Z,18.38
2023-07-25T02:04:40.317Z,18.41
2023-07-25T02:09:39.172Z,18.22
2023-07-25T02:14:37.992Z,18.25
2023-07-25T02:19:39.393Z,18.28
2023-07-25T02:24:38.439Z,18.36
2023-07-25T02:29:56.052Z,18.29
2023-07-25T02:34:55.045Z,18.15
2023-07-25T02:39:53.897Z,18.09
2023-07-25T02:44:52.793Z,18.08
2023-07-25T02:49:51.624Z,17.97
2023-07-25T02:54:50.423Z,17.90
2023-07-25T02:59:49.424Z,17.84
2023-07-25T03:04:48.238Z,17.82
2023-07-25T03:09:47.637Z,17.97
2023-07-25T03:14:46.440Z,17.60
2023-07-25T03:19:45.413Z,17.51
2023-07-25T03:24:44.286Z,17.75
2023-07-25T03:29:43.236Z,17.60
2023-07-25T03:34:42.066Z,17.70
2023-07-25T03:39:40.844Z,18.06
2023-07-25T03:44:39.761Z,18.25
2023-07-25T03:49:38.643Z,18.18
2023-07-25T03:54:37.600Z,18.04
2023-07-25T03:59:36.404Z,18.12
2023-07-25T04:04:35.376Z,18.17
2023-07-25T04:09:34.367Z,18.29
2023-07-25T04:14:34.477Z,18.29
2023-07-25T04:19:34.314Z,18.30
2023-07-25T04:24:33.134Z,19.06
2023-07-25T04:29:32.125Z,19.89
2023-07-25T04:34:31.048Z,20.34
2023-07-25T04:39:29.866Z,20.69
2023-07-25T04:44:28.849Z,20.65
2023-07-25T04:49:27.740Z,20.62
2023-07-25T04:54:26.698Z,20.79
2023-07-25T04:59:25.485Z,20.59
2023-07-25T05:04:24.389Z,21.07
2023-07-25T05:09:23.290Z,20.08
2023-07-25T05:14:22.067Z,20.44
2023-07-25T05:19:21.077Z,19.49
2023-07-25T05:24:19.898Z,19.52
2023-07-25T05:29:18.905Z,19.09
2023-07-25T05:34:17.709Z,18.85
2023-07-25T05:39:16.464Z,19.13
2023-07-25T05:44:15.343Z,19.00
2023-07-25T05:49:14.292Z,19.10
2023-07-25T05:54:16.445Z,19.13
2023-07-25T05:59:15.461Z,18.94
2023-07-25T06:04:16.699Z,18.97
2023-07-25T06:09:15.528Z,19.31
2023-07-25T06:14:14.335Z,19.11
2023-07-25T06:19:13.695Z,19.01
2023-07-25T06:24:12.860Z,18.88
2023-07-25T06:29:11.857Z,18.97
2023-07-25T06:34:10.612Z,19.01
2023-07-25T06:39:09.588Z,19.42
2023-07-25T06:44:08.425Z,19.40
2023-07-25T06:49:07.333Z,19.49
2023-07-25T06:54:06.120Z,19.28
2023-07-25T06:59:04.901Z,19.13
2023-07-25T07:04:03.914Z,19.40
2023-07-25T07:09:02.731Z,19.44
2023-07-25T07:14:01.654Z,19.33
2023-07-25T07:19:01.061Z,19.12
2023-07-25T07:24:00.089Z,19.02
2023-07-25T07:28:58.992Z,18.88
2023-07-25T07:34:11.590Z,18.93
2023-07-25T07:39:11.564Z,18.84
2023-07-25T07:44:10.499Z,18.54
2023-07-25T07:49:09.471Z,19.01
2023-07-25T07:54:08.279Z,19.37
2023-07-25T07:59:08.222Z,19.95
2023-07-25T08:04:07.927Z,20.41
2023-07-25T08:09:07.666Z,20.72
2023-07-25T08:14:25.918Z,20.76
2023-07-25T08:19:25.017Z,20.26
2023-07-25T08:24:23.888Z,20.32
2023-07-25T08:29:22.686Z,20.51
2023-07-25T08:34:21.530Z,20.75
2023-07-25T08:39:20.318Z,20.57
2023-07-25T08:44:22.079Z,20.73
2023-07-25T08:49:26.135Z,20.97
2023-07-25T08:54:33.037Z,21.02
2023-07-25T08:59:32.735Z,21.01
2023-07-25T09:04:32.408Z,20.94
2023-07-25T09:09:31.366Z,20.70
2023-07-25T09:14:30.324Z,21.14
2023-07-25T09:19:31.108Z,21.92
2023-07-25T09:24:37.716Z,22.28
2023-07-25T09:29:38.729Z,22.57
2023-07-25T09:34:39.146Z,22.25
2023-07-25T09:39:38.176Z,21.68
2023-07-25T09:44:37.217Z,21.97
2023-07-25T09:49:36.148Z,22.03
2023-07-25T09:54:35.029Z,22.03
2023-07-25T09:59:35.209Z,21.66
2023-07-25T10:04:37.512Z,22.02
2023-07-25T10:09:36.707Z,21.80
2023-07-25T10:14:39.475Z,22.03
2023-07-25T10:19:52.508Z,22.45
2023-07-25T10:24:51.523Z,22.55
2023-07-25T10:29:51.727Z,22.24
2023-07-25T10:35:02.329Z,22.09
2023-07-25T10:40:07.944Z,21.78
2023-07-25T10:45:07.016Z,21.68
2023-07-25T10:50:06.627Z,21.66
2023-07-25T10:55:05.922Z,21.49
2023-07-25T11:00:10.261Z,21.44
2023-07-25T11:05:15.264Z,21.36
2023-07-25T11:10:25.052Z,21.39
2023-07-25T11:15:40.811Z,21.30
2023-07-25T11:20:43.432Z,21.34
2023-07-25T11:25:42.474Z,21.72
2023-07-25T11:30:45.237Z,22.48
2023-07-25T11:35:44.476Z,23.02
2023-07-25T11:40:43.424Z,23.32
2023-07-25T11:45:45.230Z,23.63
2023-07-25T11:50:45.039Z,23.50
2023-07-25T11:55:46.542Z,23.32
2023-07-25T12:00:49.787Z,23.30
2023-07-25T12:06:07.087Z,22.90
2023-07-25T12:11:10.840Z,23.08
2023-07-25T12:16:09.685Z,22.93
2023-07-25T12:21:32.700Z,23.35
2023-07-25T12:26:46.738Z,23.25
2023-07-25T12:31:45.646Z,23.50
2023-07-25T12:36:44.512Z,23.46
2023-07-25T12:41:46.299Z,22.99
2023-07-25T12:46:45.240Z,22.93
2023-07-25T12:51:44.298Z,22.72
2023-07-25T12:56:43.085Z,22.84
2023-07-25T13:01:41.994Z,22.83
2023-07-25T13:06:41.422Z,22.43
2023-07-25T13:11:40.200Z,22.18
2023-07-25T13:16:38.988Z,22.00
2023-07-25T13:21:38.017Z,21.65
2023-07-25T13:26:36.983Z,21.35
2023-07-25T13:31:36.219Z,21.20
2023-07-25T13:36:35.029Z,20.97
2023-07-25T13:41:34.132Z,20.37
2023-07-25T13:46:33.163Z,19.82
2023-07-25T13:51:32.217Z,19.55
2023-07-25T13:56:31.309Z,19.01
2023-07-25T14:01:30.716Z,18.80
2023-07-25T14:06:30.385Z,18.72
2023-07-25T14:11:29.417Z,18.68
2023-07-25T14:16:29.265Z,18.54
2023-07-25T14:21:28.150Z,18.47
2023-07-25T14:26:27.105Z,18.21
2023-07-25T14:31:26.441Z,17.96
2023-07-25T14:36:25.582Z,18.17
2023-07-25T14:41:24.581Z,18.32
2023-07-25T14:46:23.562Z,18.81
2023-07-25T14:51:22.414Z,18.94
2023-07-25T14:56:21.395Z,19.03
2023-07-25T15:01:20.197Z,18.50
2023-07-25T15:06:18.991Z,18.55
2023-07-25T15:11:18.199Z,18.35
2023-07-25T15:16:17.366Z,18.40
2023-07-25T15:21:16.490Z,18.49
2023-07-25T15:26:15.363Z,18.31
2023-07-25T15:31:14.937Z,17.90
2023-07-25T15:36:13.727Z,18.22
2023-07-25T15:41:12.526Z,17.79
2023-07-25T15:46:11.479Z,17.97
2023-07-25T15:51:10.342Z,17.95
2023-07-25T15:56:09.101Z,17.69
2023-07-25T16:01:07.954Z,18.24
2023-07-25T16:06:06.768Z,18.14
2023-07-25T16:11:05.599Z,17.93
2023-07-25T16:16:04.660Z,17.96
2023-07-25T16:21:04.972Z,17.54
2023-07-25T16:26:04.720Z,17.60
2023-07-25T16:31:30.557Z,17.94
2023-07-25T16:36:22.384Z,17.90
2023-07-25T16:41:21.402Z,17.82
2023-07-25T16:46:20.308Z,17.76
2023-07-25T16:51:19.318Z,17.71
2023-07-25T16:56:18.178Z,17.49
2023-07-25T17:01:17.017Z,17.42
2023-07-25T17:06:15.830Z,17.72
2023-07-25T17:11:16.446Z,17.84
2023-07-25T17:16:15.232Z,17.58
2023-07-25T17:21:18.391Z,17.48
2023-07-25T17:26:22.542Z,17.46
2023-07-25T17:31:21.319Z,17.44
2023-07-25T17:36:20.120Z,17.42
2023-07-25T17:41:19.143Z,17.27
2023-07-25T17:46:17.933Z,17.27
2023-07-25T17:51:16.888Z,17.36
2023-07-25T17:56:15.799Z,17.25
2023-07-25T18:01:14.945Z,17.43
2023-07-25T18:06:15.259Z,18.39
2023-07-25T18:11:14.134Z,18.99
2023-07-25T18:16:13.006Z,18.96
2023-07-25T18:21:12.054Z,18.71
2023-07-25T18:26:11.321Z,18.31
2023-07-25T18:31:10.416Z,17.63
2023-07-25T18:36:09.297Z,17.07
2023-07-25T18:41:08.084Z,16.60
2023-07-25T18:46:06.963Z,16.35
2023-07-25T18:51:05.710Z,16.36
2023-07-25T18:56:05.004Z,16.60
2023-07-25T19:01:04.602Z,16.45
2023-07-25T19:06:03.605Z,16.66
2023-07-25T19:11:02.559Z,16.39
2023-07-25T19:16:01.327Z,16.42
2023-07-25T19:21:00.179Z,16.24
2023-07-25T19:25:59.860Z,15.86
2023-07-25T19:30:59.728Z,15.80
2023-07-25T19:35:59.818Z,15.59
2023-07-25T19:40:58.640Z,15.73
2023-07-25T19:46:03.949Z,15.61
2023-07-25T19:51:13.318Z,15.39
2023-07-25T19:56:12.118Z,15.37
2023-07-25T20:01:13.760Z,15.20
2023-07-25T20:06:12.666Z,15.17
2023-07-25T20:11:11.600Z,15.12
2023-07-25T20:16:10.574Z,14.99
2023-07-25T20:21:11.726Z,15.20
2023-07-25T20:26:13.159Z,15.05
2023-07-25T20:31:12.265Z,15.23
2023-07-25T20:36:11.230Z,15.31
2023-07-25T20:41:10.109Z,15.23
2023-07-25T20:46:09.037Z,15.21
2023-07-25T20:51:08.016Z,15.09
2023-07-25T20:56:08.091Z,14.96
2023-07-25T21:01:08.827Z,14.90
2023-07-25T21:06:07.731Z,15.28
2023-07-25T21:11:09.117Z,15.21
2023-07-25T21:16:08.549Z,15.52
2023-07-25T21:21:07.562Z,15.59
2023-07-25T21:26:06.490Z,15.32
2023-07-25T21:31:10.252Z,15.30
2023-07-25T21:36:14.345Z,15.29
2023-07-25T21:41:19.172Z,15.07
2023-07-25T21:46:21.247Z,15.40
2023-07-25T21:51:20.704Z,15.07
2023-07-25T21:56:19.711Z,15.15
2023-07-25T22:01:21.594Z,15.52
2023-07-25T22:06:20.598Z,15.65
2023-07-25T22:11:19.665Z,15.35
2023-07-25T22:16:18.728Z,15.07
2023-07-25T22:21:20.203Z,15.27
2023-07-25T22:26:19.211Z,15.26
2023-07-25T22:31:18.198Z,15.37
2023-07-25T22:36:17.141Z,15.21
2023-07-25T22:41:16.469Z,15.16
2023-07-25T22:46:15.824Z,15.04
2023-07-25T22:51:14.684Z,15.58
2023-07-25T22:56:13.571Z,15.31
2023-07-25T23:01:13.559Z,15.15
2023-07-25T23:06:12.599Z,15.35
2023-07-25T23:11:13.219Z,15.43
2023-07-25T23:16:12.247Z,15.34
2023-07-25T23:21:11.255Z,15.51
2023-07-25T23:26:10.069Z,15.00
2023-07-25T23:31:09.007Z,15.17
2023-07-25T23:36:07.921Z,15.23
2023-07-25T23:41:07.197Z,15.34
2023-07-25T23:46:06.073Z,15.17
2023-07-25T23:51:04.977Z,15.05
2023-07-25T23:56:04.875Z,15.30
